Time;durP1;ratioP1;P1;durP2;ratioP2;P2;SDS_P1;SDS_P2;PMS_P1;PMS_P2;Temp;Humidity;BMP_temperature;BMP_pressure;BME280_temperature;BME280_humidity;BME280_pressure;Samples;Min_cycle;Max_cycle;Signal;HPM_P1;HPM_P2
2023/07/23 00:00:50;;;;;;;22.00;15.20;;;;;;;15.38;100.00;100793.53;5052691;28;20075;-69
2023/07/23 00:03:16;;;;;;;25.75;17.55;;;;;;;15.37;100.00;100786.31;5052764;28;20032;-71
2023/07/23 00:05:44;;;;;;;26.55;17.77;;;;;;;15.36;100.00;100787.47;5052623;28;20370;-71
2023/07/23 00:08:10;;;;;;;28.88;18.40;;;;;;;15.36;100.00;100785.50;5052666;28;20048;-70
2023/07/23 00:10:35;;;;;;;27.30;18.52;;;;;;;15.35;100.00;100785.88;5052548;28;20596;-69
2023/07/23 00:13:00;;;;;;;26.33;18.40;;;;;;;15.34;100.00;100781.44;5052450;28;20078;-70
2023/07/23 00:15:26;;;;;;;23.00;14.93;;;;;;;15.29;100.00;100779.69;5052589;28;20027;-69
2023/07/23 00:17:51;;;;;;;25.65;16.13;;;;;;;15.28;100.00;100762.13;5050938;28;20120;-68
2023/07/23 00:20:17;;;;;;;23.77;15.45;;;;;;;15.27;100.00;100759.69;5052380;28;20520;-70
2023/07/23 00:22:42;;;;;;;22.33;15.85;;;;;;;15.24;100.00;100757.56;5052203;28;20108;-73
2023/07/23 00:25:08;;;;;;;21.48;14.95;;;;;;;15.20;100.00;100757.44;5050876;28;20032;-68
2023/07/23 00:27:34;;;;;;;23.52;15.40;;;;;;;15.22;100.00;100754.28;5052358;28;20053;-69
2023/07/23 00:30:00;;;;;;;21.75;14.90;;;;;;;15.21;100.00;100752.69;5052440;28;20139;-69
2023/07/23 00:32:25;;;;;;;28.02;19.27;;;;;;;15.21;100.00;100744.34;5052206;28;20036;-70
2023/07/23 00:34:51;;;;;;;22.20;15.25;;;;;;;15.19;100.00;100743.84;5052031;28;20029;-69
2023/07/23 00:37:16;;;;;;;23.20;15.95;;;;;;;15.17;100.00;100735.81;5051931;28;20433;-70
2023/07/23 00:39:41;;;;;;;23.63;15.30;;;;;;;15.15;100.00;100732.56;5052074;28;20024;-71
2023/07/23 00:42:07;;;;;;;22.38;15.18;;;;;;;15.14;100.00;100725.38;5051907;28;20099;-70
2023/07/23 00:44:32;;;;;;;22.52;15.10;;;;;;;15.15;100.00;100717.81;5051888;28;20054;-71
2023/07/23 00:47:00;;;;;;;23.52;15.63;;;;;;;15.19;100.00;100718.78;5052000;28;20056;-71
2023/07/23 00:49:25;;;;;;;23.83;15.23;;;;;;;15.18;100.00;100717.13;5051735;28;20412;-70
2023/07/23 00:51:52;;;;;;;21.88;14.68;;;;;;;15.14;100.00;100708.66;5050237;28;20025;-70
2023/07/23 00:54:19;;;;;;;21.55;14.63;;;;;;;15.17;100.00;100709.94;5051770;28;20505;-69
2023/07/23 00:56:46;;;;;;;21.58;14.75;;;;;;;15.16;100.00;100705.50;5051740;28;20033;-70
2023/07/23 00:59:12;;;;;;;21.45;14.52;;;;;;;15.16;100.00;100699.94;5051512;28;20029;-70
2023/07/23 01:01:37;;;;;;;22.45;15.23;;;;;;;15.16;100.00;100700.75;5050120;28;20079;-70
2023/07/23 01:04:03;;;;;;;21.80;15.15;;;;;;;15.12;100.00;100702.59;5051516;28;20029;-70
2023/07/23 01:06:33;;;;;;;21.00;14.45;;;;;;;15.12;100.00;100691.44;5051604;28;20115;-70
2023/07/23 01:09:00;;;;;;;21.00;14.55;;;;;;;15.07;100.00;100686.91;5051764;28;20040;-70
2023/07/23 01:11:27;;;;;;;21.88;14.18;;;;;;;15.07;100.00;100675.75;5051777;28;20028;-70
2023/07/23 01:13:54;;;;;;;23.25;14.73;;;;;;;15.06;100.00;100676.91;5051464;28;20028;-70
2023/07/23 01:16:20;;;;;;;22.75;15.10;;;;;;;15.06;100.00;100671.34;5051530;28;20043;-70
2023/07/23 01:18:46;;;;;;;22.33;14.80;;;;;;;15.04;100.00;100665.28;5051421;28;20025;-70
2023/07/23 01:21:12;;;;;;;21.65;14.85;;;;;;;15.04;100.00;100665.28;5051289;28;20052;-71
2023/07/23 01:23:37;;;;;;;21.42;14.27;;;;;;;15.04;100.00;100668.06;5051378;28;20476;-69
2023/07/23 01:26:04;;;;;;;22.17;14.70;;;;;;;15.02;100.00;100656.44;5051231;28;20060;-69
2023/07/23 01:28:29;;;;;;;21.83;15.13;;;;;;;15.02;100.00;100653.66;5051039;28;20076;-68
2023/07/23 01:30:55;;;;;;;23.20;15.00;;;;;;;15.01;100.00;100651.22;5051267;28;20126;-68
2023/07/23 01:33:22;;;;;;;26.88;17.27;;;;;;;15.03;100.00;100644.16;5051105;28;20187;-70
2023/07/23 01:35:49;;;;;;;21.80;14.95;;;;;;;15.03;100.00;100644.16;5049735;28;20033;-69
2023/07/23 01:38:17;;;;;;;23.70;15.60;;;;;;;15.01;100.00;100638.13;5051066;28;20036;-69
2023/07/23 01:40:43;;;;;;;22.10;14.73;;;;;;;15.00;100.00;100633.72;5051676;28;20070;-70
2023/07/23 01:43:08;;;;;;;24.67;16.00;;;;;;;15.02;100.00;100630.59;5051158;28;20117;-67
2023/07/23 01:45:33;;;;;;;23.75;15.38;;;;;;;15.02;100.00;100630.59;5051187;28;20377;-66
2023/07/23 01:47:59;;;;;;;22.60;15.55;;;;;;;15.02;100.00;100619.44;5051024;28;20052;-67
2023/07/23 01:50:24;;;;;;;23.60;15.82;;;;;;;14.98;100.00;100622.91;5050801;28;20104;-66
2023/07/23 01:52:50;;;;;;;26.00;19.05;;;;;;;14.99;100.00;100618.16;5051055;28;20468;-66
2023/07/23 01:55:15;;;;;;;33.17;23.65;;;;;;;14.95;100.00;100608.84;5050632;28;20201;-66
2023/07/23 01:57:41;;;;;;;23.92;16.38;;;;;;;14.94;100.00;100613.63;5051171;28;20032;-66
2023/07/23 02:00:08;;;;;;;24.42;16.58;;;;;;;14.92;100.00;100601.19;5051027;28;20481;-67
2023/07/23 02:02:33;;;;;;;23.75;16.88;;;;;;;14.92;100.00;100601.19;5051316;28;20037;-72
2023/07/23 02:04:59;;;;;;;33.97;25.65;;;;;;;14.92;100.00;100593.63;5050724;28;20044;-71
2023/07/23 02:07:24;;;;;;;23.88;17.20;;;;;;;14.92;100.00;100595.63;5050844;28;20060;-71
2023/07/23 02:09:51;;;;;;;22.90;16.67;;;;;;;14.91;100.00;100596.78;5050728;28;20052;-70
2023/07/23 02:12:17;;;;;;;23.40;16.83;;;;;;;14.90;100.00;100584.81;5050663;28;20025;-71
2023/07/23 02:14:42;;;;;;;22.70;16.58;;;;;;;14.90;100.00;100578.44;5050755;28;20052;-70
2023/07/23 02:17:07;;;;;;;25.02;17.23;;;;;;;14.89;100.00;100583.16;5049314;28;20128;-70
2023/07/23 02:19:33;;;;;;;24.77;17.48;;;;;;;14.90;100.00;100581.22;5049307;28;20104;-71
2023/07/23 02:21:58;;;;;;;23.90;16.63;;;;;;;14.89;100.00;100571.22;5050682;28;20067;-71
2023/07/23 02:24:24;;;;;;;22.05;16.40;;;;;;;14.88;100.00;100569.59;5050659;28;20048;-70
2023/07/23 02:26:49;;;;;;;23.35;16.13;;;;;;;14.88;100.00;100572.38;5050765;28;20319;-71
2023/07/23 02:29:14;;;;;;;22.35;15.77;;;;;;;14.91;100.00;100568.91;5050683;28;20064;-71
2023/07/23 02:31:40;;;;;;;22.38;15.88;;;;;;;14.91;100.00;100564.16;5050793;28;20043;-70
2023/07/23 02:34:05;;;;;;;22.98;15.55;;;;;;;14.91;100.00;100557.78;5050635;28;20021;-71
2023/07/23 02:36:31;;;;;;;26.30;17.65;;;;;;;14.90;100.00;100548.59;5050751;28;20078;-71
2023/07/23 02:38:56;;;;;;;21.48;15.15;;;;;;;14.91;100.00;100552.22;5050741;28;20048;-70
2023/07/23 02:41:23;;;;;;;25.98;18.02;;;;;;;14.94;100.00;100543.16;5050656;28;20398;-71
2023/07/23 02:43:48;;;;;;;23.15;14.98;;;;;;;14.92;100.00;100543.50;5050742;28;20135;-71
2023/07/23 02:46:13;;;;;;;22.60;15.57;;;;;;;14.93;100.00;100549.88;5050652;28;20116;-70
2023/07/23 02:48:39;;;;;;;21.67;14.68;;;;;;;14.94;100.00;100545.94;5050530;28;20028;-70
2023/07/23 02:51:04;;;;;;;21.70;15.38;;;;;;;14.95;100.00;100542.00;5050680;28;20045;-67
2023/07/23 02:53:29;;;;;;;22.60;14.80;;;;;;;14.95;100.00;100540.03;5050544;28;20021;-68
2023/07/23 02:55:55;;;;;;;24.13;16.88;;;;;;;14.95;100.00;100533.63;5050598;28;20724;-68
2023/07/23 02:58:20;;;;;;;21.98;15.13;;;;;;;14.97;100.00;100540.47;5050462;28;20379;-68
2023/07/23 03:00:46;;;;;;;21.45;14.90;;;;;;;15.00;100.00;100538.19;5049141;28;20040;-67
2023/07/23 03:03:11;;;;;;;22.08;14.93;;;;;;;14.98;100.00;100527.38;5050535;28;20024;-68
2023/07/23 03:05:37;;;;;;;22.58;15.13;;;;;;;14.97;100.00;100534.13;5050760;28;20033;-67
2023/07/23 03:08:03;;;;;;;20.98;14.75;;;;;;;14.97;100.00;100528.53;5054065;28;20040;-67
2023/07/23 03:10:29;;;;;;;22.88;15.00;;;;;;;14.98;100.00;100524.59;5054057;28;20124;-68
2023/07/23 03:12:55;;;;;;;21.42;14.23;;;;;;;14.96;100.00;100522.16;5054051;28;20060;-67
2023/07/23 03:15:21;;;;;;;21.35;14.85;;;;;;;14.97;100.00;100523.78;5054104;28;20068;-67
2023/07/23 03:17:46;;;;;;;21.50;13.90;;;;;;;14.97;100.00;100521.00;5054005;28;20029;-68
2023/07/23 03:20:12;;;;;;;22.63;14.57;;;;;;;14.98;100.00;100522.63;5053876;28;20029;-68
2023/07/23 03:22:40;;;;;;;20.77;13.68;;;;;;;14.98;100.00;100522.63;5053966;28;20032;-68
2023/07/23 03:25:06;;;;;;;20.95;13.63;;;;;;;15.00;100.00;100513.09;5053829;28;20063;-67
2023/07/23 03:27:31;;;;;;;22.60;14.00;;;;;;;15.01;100.00;100520.31;5053515;28;20434;-68
2023/07/23 03:29:57;;;;;;;21.75;13.02;;;;;;;15.04;100.00;100508.50;5053601;28;20020;-68
2023/07/23 03:32:23;;;;;;;21.45;12.95;;;;;;;15.02;100.00;100511.59;5051975;28;20025;-68
2023/07/23 03:34:48;;;;;;;19.98;13.15;;;;;;;15.04;100.00;100514.06;5053444;28;20037;-68
2023/07/23 03:37:14;;;;;;;19.40;12.43;;;;;;;15.06;100.00;100518.13;5053370;28;20049;-69
2023/07/23 03:39:39;;;;;;;20.08;12.70;;;;;;;15.08;100.00;100517.75;5053134;28;20071;-68
2023/07/23 03:42:06;;;;;;;19.90;12.45;;;;;;;15.10;100.00;100515.47;5053162;28;20049;-68
2023/07/23 03:44:32;;;;;;;20.17;12.77;;;;;;;15.11;100.00;100508.72;5053620;28;20029;-68
2023/07/23 03:47:09;;;;;;;19.30;12.20;;;;;;;15.14;100.00;100513.63;5053122;28;20036;-67
2023/07/23 03:49:34;;;;;;;20.50;12.93;;;;;;;15.17;100.00;100514.88;5053309;28;20063;-68
2023/07/23 03:52:00;;;;;;;21.70;12.23;;;;;;;15.18;99.57;100506.19;5053304;28;20029;-68
2023/07/23 03:54:26;;;;;;;21.02;12.45;;;;;;;15.20;99.03;100506.66;5053093;28;20513;-68
2023/07/23 03:56:52;;;;;;;19.23;12.23;;;;;;;15.23;97.75;100505.13;5053051;28;20100;-67
2023/07/23 03:59:17;;;;;;;19.17;12.20;;;;;;;15.26;96.45;100510.84;5052726;28;20056;-68
2023/07/23 04:01:42;;;;;;;18.70;11.90;;;;;;;15.28;97.16;100510.50;5052608;28;20064;-67
2023/07/23 04:04:08;;;;;;;18.80;11.82;;;;;;;15.29;96.71;100507.38;5051373;28;20032;-68
2023/07/23 04:06:33;;;;;;;18.80;11.80;;;;;;;15.31;95.80;100501.44;5052539;28;20331;-68
2023/07/23 04:08:58;;;;;;;19.40;11.82;;;;;;;15.32;96.27;100510.63;5052564;28;20384;-68
2023/07/23 04:11:24;;;;;;;19.90;11.68;;;;;;;15.33;95.79;100512.25;5052599;28;20024;-68
2023/07/23 04:13:50;;;;;;;19.02;11.02;;;;;;;15.33;95.34;100509.47;5052576;28;20107;-68
2023/07/23 04:16:15;;;;;;;18.70;10.88;;;;;;;15.34;95.13;100505.53;5051789;28;20116;-68
2023/07/23 04:18:51;;;;;;;19.05;11.20;;;;;;;15.36;94.94;100514.31;5052207;28;20033;-67
2023/07/23 04:21:21;;;;;;;20.13;11.63;;;;;;;15.37;94.56;100510.38;5052426;28;20033;-68
2023/07/23 04:23:48;;;;;;;18.75;10.80;;;;;;;15.37;94.91;100513.16;5051097;28;20110;-71
2023/07/23 04:26:17;;;;;;;18.65;10.80;;;;;;;15.38;93.96;100510.06;5052342;28;20025;-68
2023/07/23 04:28:44;;;;;;;19.35;10.40;;;;;;;15.41;94.06;100514.91;5051985;28;20515;-68
2023/07/23 04:31:09;;;;;;;20.40;11.10;;;;;;;15.44;93.67;100511.44;5050887;28;20087;-68
2023/07/23 04:33:35;;;;;;;20.55;10.57;;;;;;;15.46;93.49;100513.88;5052131;28;20040;-67
2023/07/23 04:36:02;;;;;;;18.00;10.30;;;;;;;15.48;92.88;100513.53;5052057;28;20063;-68
2023/07/23 04:38:27;;;;;;;19.38;10.70;;;;;;;15.50;92.78;100516.78;5051820;28;20039;-68
2023/07/23 04:40:53;;;;;;;18.38;10.55;;;;;;;15.54;92.37;100507.38;5052008;28;20021;-68
2023/07/23 04:43:18;;;;;;;19.00;10.48;;;;;;;15.58;92.01;100507.50;5051841;28;20120;-68
2023/07/23 04:45:43;;;;;;;17.08;10.40;;;;;;;15.62;91.47;100508.41;5050365;28;20109;-68
2023/07/23 04:48:13;;;;;;;18.17;10.50;;;;;;;15.65;90.91;100510.53;5051771;28;20107;-67
2023/07/23 04:50:39;;;;;;;18.27;10.38;;;;;;;15.68;91.60;100517.38;5051694;28;20033;-68
2023/07/23 04:53:04;;;;;;;20.42;10.98;;;;;;;15.70;91.62;100517.84;5051616;28;20500;-67
2023/07/23 04:55:30;;;;;;;18.70;10.35;;;;;;;15.72;91.03;100510.75;5051765;28;20029;-67
2023/07/23 04:57:55;;;;;;;18.85;10.10;;;;;;;15.73;91.31;100512.38;5051596;28;20020;-67
2023/07/23 05:00:21;;;;;;;19.13;10.50;;;;;;;15.73;91.42;100504.00;5051677;28;20029;-67
2023/07/23 05:02:46;;;;;;;19.17;10.75;;;;;;;15.74;91.27;100508.41;5050145;28;20076;-67
2023/07/23 05:05:11;;;;;;;21.20;11.02;;;;;;;15.75;91.38;100504.47;5051458;28;20021;-67
2023/07/23 05:07:38;;;;;;;17.73;10.25;;;;;;;15.73;90.76;100501.22;5051406;28;20473;-67
2023/07/23 05:10:04;;;;;;;19.98;10.20;;;;;;;15.79;89.60;100506.53;5051449;28;20135;-66
2023/07/23 05:12:29;;;;;;;18.85;10.18;;;;;;;15.82;90.22;100503.06;5051328;28;20120;-67
2023/07/23 05:15:09;;;;;;;18.85;10.32;;;;;;;15.85;90.86;100503.19;5050162;28;20021;-68
2023/07/23 05:17:34;;;;;;;20.13;10.32;;;;;;;15.87;90.71;100502.88;5051764;28;20567;-67
2023/07/23 05:19:59;;;;;;;17.98;9.93;;;;;;;15.89;91.03;100503.31;5051304;28;20035;-68
2023/07/23 05:22:25;;;;;;;18.80;10.65;;;;;;;15.90;91.81;100508.56;5051497;28;20520;-67
2023/07/23 05:24:50;;;;;;;17.77;9.88;;;;;;;15.92;91.26;100510.19;5051497;28;20388;-68
2023/07/23 05:27:15;;;;;;;19.75;10.38;;;;;;;15.91;90.25;100517.72;5051404;28;20047;-67
2023/07/23 05:29:41;;;;;;;20.40;10.48;;;;;;;15.93;90.48;100511.78;5050676;28;20028;-67
2023/07/23 05:32:07;;;;;;;18.50;10.30;;;;;;;15.94;91.80;100519.00;5051506;28;20033;-67
2023/07/23 05:34:32;;;;;;;20.85;10.52;;;;;;;15.93;92.02;100507.03;5050194;28;20088;-67
2023/07/23 05:36:57;;;;;;;18.30;10.45;;;;;;;15.96;91.42;100509.13;5051465;28;20074;-67
2023/07/23 05:39:22;;;;;;;18.25;10.27;;;;;;;15.95;91.16;100509.47;5051387;28;20461;-67
2023/07/23 05:41:48;;;;;;;19.42;10.02;;;;;;;15.95;91.62;100507.50;5051572;28;20033;-66
2023/07/23 05:44:13;;;;;;;18.42;9.73;;;;;;;15.97;90.11;100509.94;5051411;28;20025;-66
2023/07/23 05:46:38;;;;;;;19.35;10.25;;;;;;;15.95;89.80;100515.03;5051438;28;20029;-66
2023/07/23 05:49:04;;;;;;;17.10;9.77;;;;;;;15.98;90.72;100508.78;5051455;28;20040;-66
2023/07/23 05:51:29;;;;;;;19.33;10.80;;;;;;;15.96;91.74;100509.13;5051414;28;20025;-67
2023/07/23 05:53:54;;;;;;;18.33;10.10;;;;;;;15.97;91.06;100504.34;5051205;28;20474;-67
2023/07/23 05:56:20;;;;;;;17.85;10.20;;;;;;;15.95;92.26;100498.31;5050014;28;20048;-66
2023/07/23 05:58:45;;;;;;;19.63;9.80;;;;;;;15.94;90.73;100499.47;5050911;28;20039;-66
2023/07/23 06:01:10;;;;;;;19.55;10.10;;;;;;;15.87;91.92;100500.88;5051176;28;20025;-67
2023/07/23 06:03:36;;;;;;;17.80;10.02;;;;;;;15.85;93.06;100505.19;5051167;28;20032;-66
2023/07/23 06:06:01;;;;;;;18.70;10.10;;;;;;;15.81;91.89;100496.69;5051143;28;20028;-69
2023/07/23 06:08:26;;;;;;;18.33;10.43;;;;;;;15.79;92.86;100507.38;5051192;28;20032;-65
2023/07/23 06:10:51;;;;;;;18.58;10.60;;;;;;;15.80;93.16;100502.59;5049668;28;20120;-66
2023/07/23 06:13:17;;;;;;;18.48;10.05;;;;;;;15.81;93.37;100499.47;5051191;28;20056;-70
2023/07/23 06:15:42;;;;;;;17.90;10.23;;;;;;;15.84;91.88;100506.34;5049597;28;20185;-66
2023/07/23 06:18:07;;;;;;;18.60;9.73;;;;;;;15.86;92.51;100504.03;5049464;28;20498;-66
2023/07/23 06:20:33;;;;;;;18.42;10.40;;;;;;;15.88;92.36;100496.09;5049663;28;20025;-66
2023/07/23 06:23:00;;;;;;;18.13;9.82;;;;;;;15.90;92.86;100505.78;5049582;28;20524;-67
2023/07/23 06:25:25;;;;;;;18.50;9.88;;;;;;;15.89;93.31;100500.53;5050934;28;20445;-67
2023/07/23 06:27:50;;;;;;;19.25;10.05;;;;;;;15.88;94.42;100512.84;5050816;28;20056;-69
2023/07/23 06:30:16;;;;;;;18.27;9.85;;;;;;;15.84;94.69;100514.72;5049377;28;20095;-68
2023/07/23 06:32:41;;;;;;;18.77;10.43;;;;;;;15.78;94.99;100522.47;5050653;28;20033;-65
2023/07/23 06:35:10;;;;;;;18.17;10.00;;;;;;;15.72;95.25;100507.16;5050440;28;20110;-67
2023/07/23 06:37:36;;;;;;;19.23;9.88;;;;;;;15.66;97.29;100511.31;5049011;28;20413;-67
2023/07/23 06:40:02;;;;;;;19.10;10.35;;;;;;;15.63;98.31;100521.19;5051210;28;20029;-67
2023/07/23 06:42:27;;;;;;;19.33;9.88;;;;;;;15.64;98.38;100525.63;5054426;28;20033;-66
2023/07/23 06:44:52;;;;;;;19.23;10.23;;;;;;;15.63;98.65;100529.56;5054401;28;20049;-67
2023/07/23 06:47:19;;;;;;;17.90;10.23;;;;;;;15.56;98.75;100526.56;5054381;28;20110;-66
2023/07/23 06:49:45;;;;;;;18.77;10.32;;;;;;;15.57;98.88;100534.56;5054481;28;20112;-67
2023/07/23 06:52:10;;;;;;;17.67;10.25;;;;;;;15.58;99.45;100530.59;5054137;28;20115;-67
2023/07/23 06:54:40;;;;;;;17.38;10.13;;;;;;;15.64;99.02;100536.78;5054046;28;20029;-67
2023/07/23 06:57:06;;;;;;;18.98;10.50;;;;;;;15.69;98.93;100528.16;5053916;28;20485;-67
2023/07/23 06:59:32;;;;;;;18.67;10.77;;;;;;;15.77;98.10;100537.59;5053842;28;20036;-66
2023/07/23 07:01:57;;;;;;;17.70;10.57;;;;;;;15.84;97.26;100532.25;5054102;28;20480;-68
2023/07/23 07:04:22;;;;;;;17.70;10.50;;;;;;;15.81;98.46;100537.69;5054072;28;20032;-67
2023/07/23 07:06:48;;;;;;;20.40;11.15;;;;;;;15.73;100.00;100531.88;5053937;28;20037;-68
2023/07/23 07:09:13;;;;;;;18.35;11.05;;;;;;;15.72;99.84;100543.41;5052420;28;20072;-67
2023/07/23 07:11:39;;;;;;;18.48;11.25;;;;;;;15.65;100.00;100545.94;5053948;28;20044;-67
2023/07/23 07:14:04;;;;;;;18.98;11.45;;;;;;;15.58;100.00;100541.75;5054048;28;20049;-68
2023/07/23 07:16:30;;;;;;;20.20;11.55;;;;;;;15.52;100.00;100545.94;5052272;28;20537;-67
2023/07/23 07:18:55;;;;;;;20.15;11.60;;;;;;;15.53;100.00;100532.81;5053575;28;20036;-68
2023/07/23 07:21:20;;;;;;;19.30;11.77;;;;;;;15.40;100.00;100541.16;5053598;28;20025;-67
2023/07/23 07:23:46;;;;;;;21.13;12.18;;;;;;;15.36;100.00;100537.44;5053454;28;20035;-67
2023/07/23 07:26:11;;;;;;;18.85;11.60;;;;;;;15.29;100.00;100543.59;5053558;28;20025;-66
2023/07/23 07:28:36;;;;;;;19.35;11.65;;;;;;;15.22;100.00;100548.09;5053019;28;20497;-67
2023/07/23 07:31:03;;;;;;;19.58;11.60;;;;;;;15.13;100.00;100528.69;5053358;28;20435;-66
2023/07/23 07:33:29;;;;;;;20.95;12.23;;;;;;;15.11;100.00;100531.00;5053341;28;20059;-67
2023/07/23 07:35:59;;;;;;;20.85;12.20;;;;;;;15.20;100.00;100544.88;5053213;28;20075;-67
2023/07/23 07:38:26;;;;;;;20.98;11.68;;;;;;;15.20;100.00;100536.50;5053055;28;20036;-68
2023/07/23 07:40:51;;;;;;;19.60;11.68;;;;;;;15.18;100.00;100536.03;5053265;28;20057;-68
2023/07/23 07:43:18;;;;;;;21.80;12.23;;;;;;;15.18;100.00;100534.03;5053076;28;20044;-67
2023/07/23 07:45:49;;;;;;;19.75;11.75;;;;;;;15.26;100.00;100535.09;5051715;28;20029;-67
2023/07/23 07:48:15;;;;;;;21.23;11.98;;;;;;;15.29;100.00;100538.00;5053060;28;20051;-68
2023/07/23 07:50:40;;;;;;;18.80;11.40;;;;;;;15.35;100.00;100540.59;5052985;28;20025;-67
2023/07/23 07:53:06;;;;;;;20.23;11.77;;;;;;;15.36;100.00;100531.03;5052141;28;20091;-69
2023/07/23 07:55:38;;;;;;;19.80;12.15;;;;;;;15.42;100.00;100536.06;5052991;28;20071;-69
2023/07/23 07:58:04;;;;;;;19.65;12.48;;;;;;;15.59;100.00;100528.63;5052962;28;20115;-69
2023/07/23 08:00:30;;;;;;;21.60;11.98;;;;;;;15.77;100.00;100531.19;5052665;28;20120;-67
2023/07/23 08:02:55;;;;;;;20.15;12.40;;;;;;;15.86;100.00;100535.50;5052620;28;20025;-69
2023/07/23 08:05:22;;;;;;;20.45;12.52;;;;;;;15.96;100.00;100527.84;5051284;28;20439;-69
2023/07/23 08:07:48;;;;;;;21.35;12.63;;;;;;;16.01;100.00;100522.03;5053123;28;20029;-69
2023/07/23 08:10:14;;;;;;;19.45;12.10;;;;;;;16.09;100.00;100537.00;5052840;28;20063;-69
2023/07/23 08:12:40;;;;;;;21.02;12.82;;;;;;;16.12;100.00;100531.53;5051352;28;20071;-70
2023/07/23 08:15:06;;;;;;;19.30;12.30;;;;;;;16.17;100.00;100536.88;5052735;28;20425;-68
2023/07/23 08:17:34;;;;;;;20.27;12.63;;;;;;;16.16;100.00;100543.63;5052607;28;20021;-68
2023/07/23 08:19:59;;;;;;;19.88;12.80;;;;;;;16.16;100.00;100532.44;5052656;28;20033;-67
2023/07/23 08:22:25;;;;;;;20.25;12.52;;;;;;;15.96;100.00;100541.78;5052613;28;20159;-67
2023/07/23 08:24:50;;;;;;;19.92;12.27;;;;;;;15.95;100.00;100537.34;5052491;28;20115;-68
2023/07/23 08:27:21;;;;;;;19.40;12.75;;;;;;;15.98;100.00;100540.25;5052153;28;20103;-68
2023/07/23 08:29:46;;;;;;;20.13;12.40;;;;;;;15.95;100.00;100534.56;5052522;28;20044;-67
2023/07/23 08:32:16;;;;;;;20.02;12.20;;;;;;;15.91;100.00;100531.66;5052379;28;20033;-68
2023/07/23 08:34:43;;;;;;;19.58;12.35;;;;;;;15.89;100.00;100531.19;5052341;28;20028;-69
2023/07/23 08:37:09;;;;;;;18.48;12.07;;;;;;;15.95;100.00;100532.59;5052259;28;20031;-69
2023/07/23 08:39:35;;;;;;;18.30;11.32;;;;;;;15.90;100.00;100524.47;5052145;28;20111;-70
2023/07/23 08:42:25;;;;;;;19.25;11.77;;;;;;;16.02;100.00;100534.78;5052229;28;20529;-71
2023/07/23 08:45:00;;;;;;;18.83;11.02;;;;;;;16.10;100.00;100531.06;5052276;28;20043;-71
2023/07/23 08:47:26;;;;;;;17.65;11.20;;;;;;;16.10;100.00;100533.03;5052256;28;20100;-69
2023/07/23 08:49:52;;;;;;;19.27;11.60;;;;;;;16.10;100.00;100535.84;5051993;28;20036;-71
2023/07/23 08:52:19;;;;;;;19.85;11.50;;;;;;;16.14;100.00;100531.97;5051938;28;20035;-70
2023/07/23 08:54:46;;;;;;;18.85;10.88;;;;;;;16.21;100.00;100534.19;5051919;28;20028;-71
2023/07/23 08:57:11;;;;;;;18.38;11.50;;;;;;;16.19;100.00;100525.34;5050633;28;20037;-70
2023/07/23 08:59:38;;;;;;;18.48;10.90;;;;;;;16.18;100.00;100534.88;5051810;28;20059;-70
2023/07/23 09:02:04;;;;;;;18.45;10.73;;;;;;;16.19;100.00;100534.56;5051833;28;20032;-69
2023/07/23 09:04:30;;;;;;;17.15;11.15;;;;;;;16.16;100.00;100534.41;5052197;28;20044;-71
2023/07/23 09:06:58;;;;;;;17.38;10.82;;;;;;;16.13;100.00;100535.94;5051728;28;20017;-68
2023/07/23 09:09:24;;;;;;;16.98;10.93;;;;;;;16.13;100.00;100527.56;5051655;28;20040;-70
2023/07/23 09:11:49;;;;;;;17.58;10.73;;;;;;;16.16;100.00;100538.03;5050365;28;20395;-69
2023/07/23 09:14:16;;;;;;;16.80;10.57;;;;;;;16.24;100.00;100539.06;5051622;28;20021;-70
2023/07/23 09:16:43;;;;;;;16.02;10.75;;;;;;;16.31;100.00;100539.28;5050224;28;20052;-70
2023/07/23 09:19:11;;;;;;;16.80;10.85;;;;;;;16.26;100.00;100539.50;5050015;28;20128;-71
2023/07/23 09:21:37;;;;;;;17.20;11.10;;;;;;;16.24;100.00;100543.81;5051562;28;20021;-71
2023/07/23 09:24:06;;;;;;;17.42;11.00;;;;;;;16.25;100.00;100539.88;5050074;28;20062;-70
2023/07/23 09:26:32;;;;;;;17.02;11.07;;;;;;;16.24;100.00;100541.88;5051417;28;20037;-70
2023/07/23 09:29:03;;;;;;;16.67;10.88;;;;;;;16.29;100.00;100535.22;5051535;28;20063;-71
2023/07/23 09:31:31;;;;;;;17.70;11.15;;;;;;;16.36;100.00;100550.19;5051340;28;20094;-70
2023/07/23 09:33:59;;;;;;;15.65;10.80;;;;;;;16.31;100.00;100536.50;5051571;28;20028;-69
2023/07/23 09:36:25;;;;;;;18.10;11.05;;;;;;;16.33;100.00;100541.72;5051342;28;20173;-71
2023/07/23 09:38:53;;;;;;;16.73;10.40;;;;;;;16.38;100.00;100547.88;5051156;28;20035;-70
2023/07/23 09:41:19;;;;;;;16.50;10.60;;;;;;;16.40;100.00;100532.75;5051150;28;20029;-71
2023/07/23 09:43:45;;;;;;;15.55;10.18;;;;;;;16.38;100.00;100549.84;5051267;28;20488;-68
2023/07/23 09:46:11;;;;;;;17.00;10.70;;;;;;;16.40;100.00;100552.28;5051230;28;20054;-69
2023/07/23 09:48:44;;;;;;;15.20;10.07;;;;;;;16.39;100.00;100548.66;5049861;28;20521;-70
2023/07/23 09:51:10;;;;;;;18.30;10.80;;;;;;;16.32;100.00;100545.66;5051160;28;20108;-71
2023/07/23 09:53:41;;;;;;;15.02;10.25;;;;;;;16.24;100.00;100550.25;5050967;28;20025;-69
2023/07/23 09:56:09;;;;;;;14.95;10.25;;;;;;;16.28;100.00;100548.34;5050966;28;20397;-71
2023/07/23 09:58:36;;;;;;;16.35;10.98;;;;;;;16.28;100.00;100553.13;5049403;28;20025;-71
2023/07/23 10:01:02;;;;;;;16.42;10.77;;;;;;;16.22;100.00;100549.78;5050963;28;20025;-70
2023/07/23 10:03:29;;;;;;;17.02;10.50;;;;;;;16.20;100.00;100552.91;5049855;28;20082;-70
2023/07/23 10:05:55;;;;;;;16.58;10.65;;;;;;;16.19;100.00;100553.25;5050920;28;20540;-71
2023/07/23 10:08:22;;;;;;;16.48;10.93;;;;;;;16.28;100.00;100550.34;5050733;28;20112;-69
2023/07/23 10:10:48;;;;;;;17.98;11.20;;;;;;;16.30;100.00;100551.59;5050865;28;20048;-71
2023/07/23 10:13:13;;;;;;;17.30;10.90;;;;;;;16.25;100.00;100556.63;5050781;28;20032;-71
2023/07/23 10:15:39;;;;;;;16.55;10.48;;;;;;;16.19;100.00;100558.84;5052856;28;20039;-72
2023/07/23 10:18:06;;;;;;;15.85;10.35;;;;;;;16.11;100.00;100560.59;5053300;28;20459;-70
2023/07/23 10:20:32;;;;;;;17.35;10.60;;;;;;;16.04;100.00;100563.16;5054881;28;20028;-70
2023/07/23 10:22:58;;;;;;;17.05;10.70;;;;;;;15.98;100.00;100567.34;5054787;28;20037;-70
2023/07/23 10:25:30;;;;;;;16.05;10.80;;;;;;;15.99;100.00;100566.19;5054853;28;20384;-70
2023/07/23 10:27:57;;;;;;;16.67;10.63;;;;;;;15.91;100.00;100559.56;5054509;28;20505;-70
2023/07/23 10:30:23;;;;;;;16.15;10.65;;;;;;;15.89;100.00;100573.88;5054631;28;20036;-71
2023/07/23 10:33:09;;;;;;;16.70;10.68;;;;;;;15.91;100.00;100562.34;5054607;28;20535;-72
2023/07/23 10:35:53;;;;;;;16.35;10.60;;;;;;;15.89;100.00;100571.09;5047028;28;20821;-72
2023/07/23 10:38:21;;;;;;;15.90;10.70;;;;;;;15.90;100.00;100560.72;5054242;28;20029;-71
2023/07/23 10:40:47;;;;;;;16.85;11.07;;;;;;;15.98;100.00;100568.16;5054409;28;20108;-70
2023/07/23 10:43:13;;;;;;;17.33;11.35;;;;;;;16.02;100.00;100563.50;5054458;28;20075;-71
2023/07/23 10:45:44;;;;;;;16.77;10.90;;;;;;;16.07;100.00;100568.03;5054232;28;20032;-71
2023/07/23 10:48:17;;;;;;;17.10;10.98;;;;;;;16.06;100.00;100569.22;5052963;28;20037;-71
2023/07/23 10:51:00;;;;;;;17.58;11.23;;;;;;;16.08;100.00;100560.47;5054353;28;20028;-71
2023/07/23 10:53:30;;;;;;;16.50;11.25;;;;;;;16.10;100.00;100555.38;5054266;28;20037;-70
2023/07/23 10:55:59;;;;;;;18.08;11.57;;;;;;;16.09;100.00;100565.72;5054286;28;20028;-74
2023/07/23 10:58:26;;;;;;;16.77;11.43;;;;;;;16.22;100.00;100569.31;5053999;28;20024;-71
2023/07/23 11:00:59;;;;;;;16.95;11.30;;;;;;;16.23;100.00;100551.41;5054021;28;20032;-71